Time;durP1;ratioP1;P1;durP2;ratioP2;P2;SDS_P1;SDS_P2;PMS_P1;PMS_P2;Temp;Humidity;BMP_temperature;BMP_pressure;BME280_temperature;BME280_humidity;BME280_pressure;Samples;Min_cycle;Max_cycle;Signal;HPM_P1;HPM_P2
2023/08/13 00:00:49;;;;;;;112.03;55.90;;;20.00;83.80;;;;;;4926693;28;94592;-74
2023/08/13 00:03:14;;;;;;;111.75;56.03;;;20.00;83.90;;;;;;4930872;28;95397;-74
2023/08/13 00:05:40;;;;;;;111.03;56.22;;;20.00;83.80;;;;;;4927474;28;95752;-73
2023/08/13 00:08:06;;;;;;;112.00;55.95;;;20.00;84.10;;;;;;4915063;28;97470;-74
2023/08/13 00:10:31;;;;;;;111.32;56.08;;;20.00;83.90;;;;;;4925308;28;98704;-74
2023/08/13 00:12:57;;;;;;;111.28;55.70;;;20.00;84.00;;;;;;4931385;28;94496;-73
2023/08/13 00:15:23;;;;;;;113.93;55.97;;;19.90;84.00;;;;;;4937951;28;96071;-73
2023/08/13 00:17:48;;;;;;;113.63;55.85;;;19.90;84.10;;;;;;4919269;28;98524;-73
2023/08/13 00:20:14;;;;;;;112.40;55.67;;;19.90;84.90;;;;;;4912307;28;96181;-75
2023/08/13 00:22:40;;;;;;;110.57;55.95;;;19.90;84.30;;;;;;4922419;28;96219;-74
2023/08/13 00:25:07;;;;;;;111.70;56.05;;;19.90;85.00;;;;;;4908745;28;95065;-74
2023/08/13 00:27:33;;;;;;;112.57;56.05;;;19.90;84.30;;;;;;4928555;28;95848;-74
2023/08/13 00:29:58;;;;;;;112.45;56.03;;;19.80;84.40;;;;;;4929115;28;98933;-73
2023/08/13 00:32:24;;;;;;;113.32;56.03;;;19.80;84.60;;;;;;4933955;28;96606;-73
2023/08/13 00:34:49;;;;;;;112.15;55.85;;;19.80;84.60;;;;;;4932478;28;95476;-74
2023/08/13 00:37:16;;;;;;;112.68;55.92;;;19.70;84.60;;;;;;4928141;28;95989;-75
2023/08/13 00:39:42;;;;;;;112.35;56.22;;;19.70;84.70;;;;;;4922407;28;95670;-74
2023/08/13 00:42:08;;;;;;;112.53;55.92;;;19.70;84.80;;;;;;4911885;28;97138;-72
2023/08/13 00:44:33;;;;;;;112.35;55.63;;;19.70;84.90;;;;;;4923600;28;94639;-72
2023/08/13 00:46:59;;;;;;;111.88;55.75;;;19.70;85.00;;;;;;4929563;28;94470;-73
2023/08/13 00:49:25;;;;;;;113.85;55.80;;;19.60;85.00;;;;;;4906088;28;94890;-71
2023/08/13 00:51:50;;;;;;;113.35;55.67;;;19.60;85.20;;;;;;4929067;28;94882;-73
2023/08/13 00:54:16;;;;;;;113.68;55.83;;;19.60;85.30;;;;;;4929521;28;95128;-72
2023/08/13 00:56:44;;;;;;;112.95;56.25;;;19.50;85.40;;;;;;4930706;28;94714;-72
2023/08/13 00:59:10;;;;;;;112.28;56.03;;;19.50;85.40;;;;;;4938570;28;96440;-73
2023/08/13 01:01:36;;;;;;;112.95;55.80;;;19.50;85.60;;;;;;4922436;28;95762;-73
2023/08/13 01:04:01;;;;;;;111.78;55.63;;;19.50;85.60;;;;;;4920022;28;94589;-73
2023/08/13 01:06:38;;;;;;;111.85;55.90;;;19.50;85.70;;;;;;4921332;28;99324;-72
2023/08/13 01:09:22;;;;;;;110.50;55.22;;;19.40;85.50;;;;;;4906329;28;94845;-73
2023/08/13 01:12:12;;;;;;;111.43;55.50;;;19.40;85.60;;;;;;4924144;28;94218;-73
2023/08/13 01:14:48;;;;;;;112.20;55.77;;;19.40;85.70;;;;;;4924005;28;97300;-72
2023/08/13 01:17:17;;;;;;;111.30;56.03;;;19.40;85.80;;;;;;4923504;28;94581;-72
2023/08/13 01:19:42;;;;;;;111.80;55.78;;;19.40;85.90;;;;;;4920736;28;96781;-72
2023/08/13 01:22:08;;;;;;;113.07;55.92;;;19.40;86.00;;;;;;4931174;28;94444;-72
2023/08/13 01:24:33;;;;;;;110.97;55.92;;;19.30;86.60;;;;;;4929417;28;96633;-72
2023/08/13 01:27:18;;;;;;;111.60;55.92;;;19.30;86.10;;;;;;4922875;28;94070;-72
2023/08/13 01:29:54;;;;;;;112.72;55.90;;;19.30;86.10;;;;;;4923882;28;97971;-71
2023/08/13 01:32:24;;;;;;;111.68;55.47;;;19.30;86.10;;;;;;4923208;28;94888;-72
2023/08/13 01:34:51;;;;;;;110.57;55.30;;;19.30;87.20;;;;;;4926937;28;94508;-72
2023/08/13 01:37:19;;;;;;;112.40;55.70;;;19.30;86.70;;;;;;4923495;28;96103;-72
2023/08/13 01:39:45;;;;;;;114.25;55.83;;;19.30;88.20;;;;;;4918729;28;94808;-72
2023/08/13 01:42:11;;;;;;;113.30;56.13;;;19.30;86.40;;;;;;4924353;28;96134;-72
2023/08/13 01:44:37;;;;;;;112.38;55.88;;;19.30;86.80;;;;;;4904753;28;97236;-71
2023/08/13 01:47:04;;;;;;;111.05;55.70;;;19.30;86.50;;;;;;4925124;28;96450;-71
2023/08/13 01:49:31;;;;;;;111.80;55.70;;;19.30;86.30;;;;;;4933978;28;94459;-72
2023/08/13 01:51:57;;;;;;;110.40;55.40;;;19.20;86.30;;;;;;4918697;28;96364;-72
2023/08/13 01:54:22;;;;;;;112.03;55.72;;;19.30;86.60;;;;;;4919872;28;96148;-73
2023/08/13 01:56:48;;;;;;;111.53;55.20;;;19.30;86.20;;;;;;4931748;28;94298;-71
2023/08/13 01:59:15;;;;;;;109.75;55.45;;;19.20;86.30;;;;;;4928332;28;94899;-72
2023/08/13 02:01:41;;;;;;;112.55;55.78;;;19.30;86.70;;;;;;4936244;28;93558;-72
2023/08/13 02:04:06;;;;;;;113.93;55.72;;;19.30;86.20;;;;;;4923658;28;104406;-72
2023/08/13 02:06:35;;;;;;;111.28;55.83;;;19.20;86.50;;;;;;4927259;28;96111;-72
2023/08/13 02:09:01;;;;;;;112.80;55.58;;;19.20;86.10;;;;;;4926899;28;95704;-72
2023/08/13 02:11:26;;;;;;;110.93;55.50;;;19.20;86.30;;;;;;4925170;28;94517;-72
2023/08/13 02:13:52;;;;;;;110.72;55.90;;;19.20;86.50;;;;;;4927820;28;94740;-72
2023/08/13 02:16:18;;;;;;;111.63;55.70;;;19.20;87.40;;;;;;4922760;28;94680;-73
2023/08/13 02:18:43;;;;;;;111.05;55.20;;;19.20;86.50;;;;;;4928838;28;94334;-72
2023/08/13 02:21:09;;;;;;;110.40;55.38;;;19.20;86.30;;;;;;4921659;28;95320;-73
2023/08/13 02:23:34;;;;;;;109.90;55.50;;;19.20;86.40;;;;;;4924187;28;94753;-72
2023/08/13 02:26:00;;;;;;;110.88;55.33;;;19.20;86.40;;;;;;4923732;28;95514;-73
2023/08/13 02:28:25;;;;;;;110.10;55.33;;;19.20;86.20;;;;;;4925066;28;98172;-72
2023/08/13 02:30:51;;;;;;;110.97;55.25;;;19.20;86.60;;;;;;4934221;28;94983;-73
2023/08/13 02:33:17;;;;;;;110.30;55.25;;;19.20;86.80;;;;;;4914287;28;97523;-72
2023/08/13 02:35:43;;;;;;;111.88;55.47;;;19.20;86.30;;;;;;4927673;28;98609;-71
2023/08/13 02:38:09;;;;;;;110.88;55.60;;;19.20;86.80;;;;;;4922265;28;96533;-72
2023/08/13 02:40:35;;;;;;;115.32;55.78;;;19.20;86.60;;;;;;4913954;28;95367;-72
2023/08/13 02:43:02;;;;;;;110.90;55.65;;;19.20;87.00;;;;;;4927443;28;98318;-73
2023/08/13 02:45:27;;;;;;;113.00;55.75;;;19.20;86.30;;;;;;4925298;28;94960;-72
2023/08/13 02:47:53;;;;;;;110.88;55.55;;;19.20;86.60;;;;;;4920138;28;96560;-72
2023/08/13 02:50:19;;;;;;;110.80;55.20;;;19.10;86.40;;;;;;4902095;28;99900;-73
2023/08/13 02:52:44;;;;;;;112.80;55.75;;;19.10;86.40;;;;;;4926663;28;94757;-72
2023/08/13 02:55:10;;;;;;;110.10;55.67;;;19.10;86.70;;;;;;4914195;28;95285;-72
2023/08/13 02:57:35;;;;;;;112.00;55.60;;;19.10;86.80;;;;;;4906680;28;95402;-72
2023/08/13 03:00:02;;;;;;;109.80;55.45;;;19.10;86.20;;;;;;4933148;28;95858;-72
2023/08/13 03:02:27;;;;;;;111.43;55.60;;;19.10;87.30;;;;;;4920794;28;96856;-72
2023/08/13 03:04:53;;;;;;;111.05;55.58;;;19.10;86.60;;;;;;4931001;28;94357;-72
2023/08/13 03:07:18;;;;;;;111.15;55.75;;;19.10;86.70;;;;;;4923453;28;94364;-73
2023/08/13 03:09:44;;;;;;;111.45;55.78;;;19.10;86.70;;;;;;4926047;28;96638;-73
2023/08/13 03:12:10;;;;;;;110.75;55.10;;;19.10;86.50;;;;;;4898715;28;95900;-73
2023/08/13 03:14:36;;;;;;;110.43;55.15;;;19.10;86.60;;;;;;4925399;28;97258;-72
2023/08/13 03:17:02;;;;;;;109.97;55.53;;;19.10;87.50;;;;;;4921426;28;94324;-72
2023/08/13 03:19:27;;;;;;;112.63;55.60;;;19.10;87.20;;;;;;4913181;28;94462;-72
2023/08/13 03:21:53;;;;;;;111.97;55.55;;;19.10;86.60;;;;;;4916242;28;97290;-73
2023/08/13 03:24:18;;;;;;;111.30;55.45;;;19.20;86.90;;;;;;4935418;28;94801;-72
2023/08/13 03:26:44;;;;;;;111.22;55.47;;;19.20;86.50;;;;;;4927952;28;94720;-71
2023/08/13 03:29:09;;;;;;;109.72;55.47;;;19.10;86.50;;;;;;4925020;28;99320;-72
2023/08/13 03:31:35;;;;;;;111.45;55.63;;;19.10;86.40;;;;;;4937499;28;94692;-73
2023/08/13 03:34:01;;;;;;;110.35;55.38;;;19.10;86.50;;;;;;4920427;28;94658;-72
2023/08/13 03:36:26;;;;;;;113.38;55.45;;;19.10;86.30;;;;;;4912717;28;94603;-72
2023/08/13 03:38:52;;;;;;;111.25;55.58;;;19.10;86.40;;;;;;4908433;28;96728;-70
2023/08/13 03:41:18;;;;;;;113.18;55.40;;;19.10;86.40;;;;;;4912814;28;96429;-71
2023/08/13 03:43:43;;;;;;;111.22;55.53;;;19.10;86.80;;;;;;4934220;28;95899;-72
2023/08/13 03:46:09;;;;;;;112.45;55.53;;;19.10;86.70;;;;;;4920081;28;96340;-72
2023/08/13 03:48:34;;;;;;;109.65;55.40;;;19.10;86.10;;;;;;4905843;28;96498;-72
2023/08/13 03:51:02;;;;;;;112.00;55.55;;;19.20;86.80;;;;;;4897462;28;96658;-73
2023/08/13 03:53:28;;;;;;;111.45;55.53;;;19.20;86.80;;;;;;4908983;28;98573;-72
2023/08/13 03:55:53;;;;;;;111.05;55.28;;;19.10;86.50;;;;;;4917982;28;95184;-72
2023/08/13 03:58:19;;;;;;;111.05;55.45;;;19.20;87.00;;;;;;4928728;28;96818;-71
2023/08/13 04:00:44;;;;;;;111.82;55.75;;;19.10;86.20;;;;;;4919615;28;94606;-73
2023/08/13 04:03:10;;;;;;;110.57;55.42;;;19.10;86.40;;;;;;4914809;28;96248;-72
2023/08/13 04:05:36;;;;;;;109.63;55.35;;;19.10;86.30;;;;;;4927024;28;94687;-72
2023/08/13 04:08:02;;;;;;;111.20;55.50;;;19.10;86.20;;;;;;4917264;28;94877;-73
2023/08/13 04:10:28;;;;;;;110.72;55.65;;;19.10;86.50;;;;;;4933132;28;95882;-72
2023/08/13 04:12:55;;;;;;;109.75;55.53;;;19.10;87.40;;;;;;4923496;28;94722;-72
2023/08/13 04:15:22;;;;;;;109.72;55.42;;;19.10;86.30;;;;;;4933454;28;95948;-72
2023/08/13 04:17:48;;;;;;;110.38;55.70;;;19.10;87.20;;;;;;4920533;28;96773;-73
2023/08/13 04:20:13;;;;;;;111.95;55.72;;;19.10;86.50;;;;;;4944753;28;94600;-71
2023/08/13 04:22:39;;;;;;;110.75;55.72;;;19.10;87.10;;;;;;4928317;28;95533;-72
2023/08/13 04:25:07;;;;;;;111.53;55.55;;;19.00;86.50;;;;;;4905145;28;96087;-71
2023/08/13 04:27:32;;;;;;;109.88;55.50;;;19.00;87.50;;;;;;4909631;28;98378;-72
2023/08/13 04:29:58;;;;;;;110.05;55.55;;;19.00;86.70;;;;;;4919648;28;94517;-71
2023/08/13 04:32:23;;;;;;;110.60;55.35;;;19.00;87.00;;;;;;4921621;28;96522;-72
2023/08/13 04:34:49;;;;;;;113.03;55.72;;;19.00;86.70;;;;;;4918533;28;95940;-73
2023/08/13 04:37:15;;;;;;;111.03;55.40;;;19.10;89.90;;;;;;4916999;28;98205;-71
2023/08/13 04:39:40;;;;;;;110.80;55.75;;;19.10;87.70;;;;;;4916355;28;97495;-71
2023/08/13 04:42:06;;;;;;;111.72;55.25;;;19.00;87.10;;;;;;4917913;28;94034;-71
2023/08/13 04:44:31;;;;;;;111.38;55.38;;;19.00;86.90;;;;;;4933140;28;94673;-72
2023/08/13 04:46:57;;;;;;;111.57;55.53;;;19.00;87.30;;;;;;4930278;28;96660;-72
2023/08/13 04:49:22;;;;;;;109.63;55.38;;;19.00;87.30;;;;;;4924712;28;97906;-71
2023/08/13 04:51:48;;;;;;;109.55;55.35;;;19.00;88.20;;;;;;4928775;28;94405;-71
2023/08/13 04:54:14;;;;;;;111.82;55.63;;;19.00;87.40;;;;;;4926760;28;94628;-71
2023/08/13 04:56:40;;;;;;;110.63;55.45;;;19.00;88.10;;;;;;4923451;28;99285;-72
2023/08/13 04:59:06;;;;;;;110.63;55.42;;;19.00;87.00;;;;;;4924721;28;96215;-73
2023/08/13 05:01:31;;;;;;;109.88;55.45;;;19.00;87.30;;;;;;4920521;28;94752;-71
2023/08/13 05:03:57;;;;;;;110.45;55.40;;;19.00;86.90;;;;;;4924729;28;94903;-70
2023/08/13 05:06:22;;;;;;;110.97;55.08;;;19.00;88.00;;;;;;4925940;28;96570;-71
2023/08/13 05:08:48;;;;;;;110.22;55.33;;;19.00;87.20;;;;;;4922894;28;95370;-71
2023/08/13 05:11:14;;;;;;;110.97;55.08;;;19.00;88.30;;;;;;4921675;28;98319;-72
2023/08/13 05:13:39;;;;;;;110.28;55.38;;;19.00;86.70;;;;;;4923005;28;96017;-72
2023/08/13 05:16:05;;;;;;;109.05;55.45;;;19.10;86.80;;;;;;4927157;28;93847;-72
2023/08/13 05:18:30;;;;;;;110.38;55.63;;;19.10;87.00;;;;;;4922651;28;95475;-72
2023/08/13 05:20:56;;;;;;;110.50;55.58;;;19.00;86.80;;;;;;4925435;28;94902;-71
2023/08/13 05:23:22;;;;;;;111.13;55.72;;;19.10;88.60;;;;;;4918742;28;97091;-72
2023/08/13 05:25:47;;;;;;;113.47;55.92;;;19.10;87.20;;;;;;4937143;28;94531;-70
2023/08/13 05:28:13;;;;;;;111.13;55.50;;;19.10;87.00;;;;;;4930468;28;94289;-71
2023/08/13 05:30:39;;;;;;;110.28;55.33;;;19.10;87.10;;;;;;4925786;28;94551;-71
2023/08/13 05:33:05;;;;;;;110.22;55.53;;;19.10;87.20;;;;;;4926636;28;94497;-71
2023/08/13 05:35:31;;;;;;;110.32;55.40;;;19.20;87.50;;;;;;4920768;28;94667;-72
2023/08/13 05:37:57;;;;;;;111.78;55.47;;;19.20;86.80;;;;;;4907644;28;96906;-72
2023/08/13 05:40:23;;;;;;;112.07;55.45;;;19.20;87.10;;;;;;4912279;28;93806;-72
2023/08/13 05:42:50;;;;;;;110.93;55.30;;;19.20;86.80;;;;;;4922523;28;95016;-71
2023/08/13 05:45:15;;;;;;;110.85;55.67;;;19.20;87.10;;;;;;4929588;28;95482;-72
2023/08/13 05:47:41;;;;;;;111.60;56.05;;;19.30;86.50;;;;;;4925586;28;97545;-71
2023/08/13 05:50:07;;;;;;;109.85;55.08;;;19.30;86.50;;;;;;4925564;28;95832;-71
2023/08/13 05:52:33;;;;;;;111.53;55.35;;;19.30;86.00;;;;;;4933120;28;94415;-70
2023/08/13 05:54:59;;;;;;;109.50;55.45;;;19.30;86.90;;;;;;4923570;28;95872;-72
2023/08/13 05:57:24;;;;;;;109.18;55.42;;;19.40;86.70;;;;;;4931058;28;96292;-72
2023/08/13 05:59:50;;;;;;;110.57;55.47;;;19.40;86.50;;;;;;4938078;28;94124;-72
2023/08/13 06:02:16;;;;;;;109.15;55.67;;;19.40;86.50;;;;;;4925680;28;94485;-72
2023/08/13 06:04:42;;;;;;;110.18;55.72;;;19.40;86.40;;;;;;4931891;28;93871;-72
2023/08/13 06:07:08;;;;;;;110.03;55.35;;;19.50;86.20;;;;;;4926703;28;94369;-72
2023/08/13 06:09:34;;;;;;;109.63;55.58;;;19.50;86.60;;;;;;4927473;28;95927;-70
2023/08/13 06:11:59;;;;;;;111.55;55.47;;;19.50;86.40;;;;;;4929704;28;95422;-73
2023/08/13 06:14:25;;;;;;;111.55;55.67;;;19.50;86.00;;;;;;4921790;28;94378;-72
2023/08/13 06:16:50;;;;;;;111.30;55.70;;;19.60;86.20;;;;;;4928206;28;95384;-72
2023/08/13 06:19:16;;;;;;;110.45;55.53;;;19.60;85.50;;;;;;4922363;28;96477;-71
2023/08/13 06:21:41;;;;;;;109.82;55.58;;;19.60;86.40;;;;;;4931248;28;94732;-72
2023/08/13 06:24:07;;;;;;;110.85;55.72;;;19.70;85.80;;;;;;4925869;28;95613;-72
2023/08/13 06:26:33;;;;;;;111.03;55.63;;;19.70;85.20;;;;;;4946377;28;98302;-72
2023/08/13 06:28:58;;;;;;;111.43;55.63;;;19.70;86.00;;;;;;4945158;28;95298;-72
2023/08/13 06:31:24;;;;;;;110.35;55.92;;;19.80;85.20;;;;;;4947233;28;98591;-73
2023/08/13 06:33:50;;;;;;;110.38;55.78;;;19.80;85.30;;;;;;4944987;28;94575;-73
2023/08/13 06:36:15;;;;;;;111.55;55.58;;;19.80;85.60;;;;;;4945198;28;96076;-71
2023/08/13 06:38:41;;;;;;;111.80;56.10;;;19.80;84.90;;;;;;4940764;28;94999;-72
2023/08/13 06:41:06;;;;;;;112.90;55.60;;;19.90;84.70;;;;;;4942627;28;95425;-72
2023/08/13 06:43:33;;;;;;;111.72;55.67;;;19.90;84.40;;;;;;4947022;28;99246;-72
2023/08/13 06:46:00;;;;;;;110.53;55.55;;;19.90;85.00;;;;;;4942295;28;95338;-70
2023/08/13 06:48:27;;;;;;;110.72;55.90;;;19.90;84.80;;;;;;4938903;28;95596;-72
2023/08/13 06:50:56;;;;;;;110.65;55.40;;;20.00;85.10;;;;;;4916350;28;100723;-72
2023/08/13 06:53:23;;;;;;;110.35;55.83;;;20.00;84.70;;;;;;4925758;28;93953;-72
2023/08/13 06:55:49;;;;;;;110.85;55.67;;;20.00;85.00;;;;;;4939289;28;95319;-73
2023/08/13 06:58:15;;;;;;;112.80;56.03;;;20.10;84.70;;;;;;4940724;28;96260;-72
2023/08/13 07:00:41;;;;;;;110.70;56.03;;;20.10;85.00;;;;;;4929421;28;97567;-72
2023/08/13 07:03:08;;;;;;;111.82;55.85;;;20.10;84.60;;;;;;4926731;28;95891;-72
2023/08/13 07:05:34;;;;;;;110.50;55.42;;;20.20;84.10;;;;;;4942562;28;96925;-71
2023/08/13 07:08:00;;;;;;;110.63;55.55;;;20.20;84.40;;;;;;4949720;28;98130;-72
2023/08/13 07:10:26;;;;;;;110.95;55.83;;;20.20;84.10;;;;;;4931878;28;95308;-73
2023/08/13 07:12:51;;;;;;;111.05;55.97;;;20.20;84.60;;;;;;4924825;28;96481;-72
2023/08/13 07:15:17;;;;;;;111.75;56.08;;;20.30;85.10;;;;;;4900918;28;97643;-71
2023/08/13 07:17:44;;;;;;;112.65;55.95;;;20.20;84.10;;;;;;4894488;28;95198;-73
2023/08/13 07:20:13;;;;;;;110.65;55.90;;;20.30;83.90;;;;;;4922520;28;94958;-74
2023/08/13 07:22:43;;;;;;;114.82;56.20;;;20.30;84.30;;;;;;4902151;28;94931;-72
2023/08/13 07:25:11;;;;;;;111.85;56.05;;;20.30;85.40;;;;;;4913450;28;96136;-72
2023/08/13 07:27:37;;;;;;;110.82;55.72;;;20.40;84.10;;;;;;4935467;28;95389;-70
2023/08/13 07:30:03;;;;;;;116.30;56.58;;;20.40;86.20;;;;;;4923805;28;95608;-74
2023/08/13 07:32:29;;;;;;;113.38;56.55;;;20.40;84.00;;;;;;4916915;28;96060;-73
2023/08/13 07:34:55;;;;;;;120.90;56.33;;;20.40;85.20;;;;;;4920269;28;95995;-72
2023/08/13 07:37:21;;;;;;;116.80;56.60;;;20.50;84.80;;;;;;4925966;28;99386;-70
2023/08/13 07:39:47;;;;;;;113.40;56.55;;;20.60;83.30;;;;;;4955518;22;95771;-43
2023/08/13 07:42:14;;;;;;;114.97;56.75;;;20.60;83.00;;;;;;4962227;28;98015;-41
2023/08/13 07:44:39;;;;;;;116.05;56.30;;;20.70;83.10;;;;;;4957534;28;94997;-42
2023/08/13 07:47:05;;;;;;;117.47;56.80;;;20.80;82.50;;;;;;4959650;28;98597;-41
2023/08/13 07:49:31;;;;;;;116.88;57.05;;;20.90;82.70;;;;;;4951278;28;96923;-42
2023/08/13 07:51:56;;;;;;;116.85;56.95;;;20.90;81.60;;;;;;4960069;28;95242;-43
2023/08/13 07:54:22;;;;;;;114.07;56.55;;;20.90;81.90;;;;;;4951771;28;98062;-42
2023/08/13 07:56:48;;;;;;;118.60;56.95;;;21.00;80.90;;;;;;4948154;28;96842;-48
2023/08/13 07:59:14;;;;;;;116.40;57.05;;;21.00;81.50;;;;;;4959409;28;94754;-43
2023/08/13 08:01:42;;;;;;;116.75;56.63;;;21.00;81.40;;;;;;4960113;28;95096;-48
2023/08/13 08:04:08;;;;;;;115.10;56.80;;;21.00;82.20;;;;;;4961206;28;95282;-43
2023/08/13 08:06:34;;;;;;;119.18;57.00;;;20.90;81.90;;;;;;4954159;28;94195;-43
2023/08/13 08:09:00;;;;;;;117.88;56.90;;;20.90;80.30;;;;;;4954487;28;94741;-45
2023/08/13 08:11:26;;;;;;;117.65;56.95;;;20.80;83.50;;;;;;4948799;28;98697;-44
2023/08/13 08:13:51;;;;;;;116.40;57.08;;;20.90;82.20;;;;;;4948856;28;98237;-45
2023/08/13 08:16:17;;;;;;;118.82;56.97;;;21.00;81.40;;;;;;4957671;28;96475;-46
2023/08/13 08:18:42;;;;;;;115.32;56.58;;;21.00;80.60;;;;;;4957109;28;97552;-45
2023/08/13 08:21:08;;;;;;;115.20;56.63;;;21.00;80.90;;;;;;4959671;28;95098;-49
2023/08/13 08:23:34;;;;;;;115.13;56.85;;;21.10;81.00;;;;;;4958263;28;95891;-46
2023/08/13 08:25:59;;;;;;;116.85;56.42;;;21.20;80.60;;;;;;4953637;28;95317;-45
2023/08/13 08:28:26;;;;;;;117.07;56.97;;;21.40;80.60;;;;;;4953955;28;99240;-44
2023/08/13 08:30:52;;;;;;;118.65;57.20;;;21.50;80.50;;;;;;4947348;28;95526;-48
2023/08/13 08:33:21;;;;;;;118.32;57.38;;;21.50;80.10;;;;;;4951483;28;95105;-48
2023/08/13 08:35:46;;;;;;;117.15;56.95;;;21.50;79.80;;;;;;4954866;28;96239;-42
2023/08/13 08:38:13;;;;;;;113.60;56.78;;;21.40;79.60;;;;;;4950042;28;98149;-44
2023/08/13 08:40:41;;;;;;;117.50;57.47;;;21.40;80.30;;;;;;4952951;28;98658;-43
2023/08/13 08:43:07;;;;;;;116.95;57.17;;;21.50;81.10;;;;;;4960244;28;94670;-40
2023/08/13 08:45:33;;;;;;;117.82;56.50;;;21.50;81.50;;;;;;4936901;28;96001;-41
2023/08/13 08:48:00;;;;;;;113.72;57.08;;;21.50;80.80;;;;;;4949897;28;96195;-45
2023/08/13 08:50:26;;;;;;;116.82;57.35;;;21.50;81.80;;;;;;4952428;28;96982;-41
2023/08/13 08:52:52;;;;;;;114.60;56.95;;;21.50;81.00;;;;;;4960347;28;96539;-44
2023/08/13 08:55:17;;;;;;;115.68;56.75;;;21.50;81.40;;;;;;4952347;28;94190;-43
2023/08/13 08:57:43;;;;;;;116.45;57.00;;;21.60;81.30;;;;;;4954085;28;96240;-43
2023/08/13 09:00:09;;;;;;;115.65;57.30;;;21.50;80.90;;;;;;4948352;28;95838;-44
2023/08/13 09:02:38;;;;;;;116.13;57.05;;;21.60;80.90;;;;;;4955013;28;96499;-41
2023/08/13 09:05:05;;;;;;;116.57;57.20;;;21.60;80.10;;;;;;4948350;28;100656;-45
2023/08/13 09:07:31;;;;;;;117.05;56.92;;;21.60;80.50;;;;;;4953350;28;94767;-47
2023/08/13 09:09:57;;;;;;;120.75;57.40;;;21.70;80.10;;;;;;4951327;28;98710;-44
2023/08/13 09:12:23;;;;;;;116.97;56.83;;;21.70;80.20;;;;;;4947104;28;94733;-45
2023/08/13 09:14:54;;;;;;;119.05;57.05;;;21.70;79.30;;;;;;4945621;28;97412;-44
2023/08/13 09:17:24;;;;;;;117.32;57.47;;;21.80;79.70;;;;;;4953473;28;97710;-47
2023/08/13 09:19:49;;;;;;;115.90;57.20;;;21.90;80.00;;;;;;4957990;28;93992;-43
2023/08/13 09:22:16;;;;;;;119.63;57.28;;;22.00;80.00;;;;;;4948606;28;97458;-45
2023/08/13 09:24:41;;;;;;;116.78;57.03;;;22.10;79.10;;;;;;4954386;28;95510;-44
2023/08/13 09:27:08;;;;;;;116.03;56.95;;;22.20;78.40;;;;;;4947570;28;96522;-46
2023/08/13 09:29:35;;;;;;;118.63;57.50;;;22.30;78.30;;;;;;4953475;28;98964;-44
2023/08/13 09:32:02;;;;;;;119.35;57.95;;;22.40;78.60;;;;;;4949143;28;95554;-43
2023/08/13 09:34:29;;;;;;;119.63;57.60;;;22.40;78.00;;;;;;4954524;28;96240;-44
2023/08/13 09:36:56;;;;;;;119.57;58.20;;;22.40;76.80;;;;;;4953511;28;95231;-42
2023/08/13 09:39:27;;;;;;;121.03;57.53;;;22.50;76.00;;;;;;4950764;28;96431;-42
2023/08/13 09:41:53;;;;;;;;;;;22.60;75.50;;;;;;4951755;28;97742;-44
2023/08/13 09:44:23;;;;;;;118.05;57.63;;;22.60;75.70;;;;;;4953861;28;94216;-43
2023/08/13 09:46:53;;;;;;;120.07;57.50;;;22.50;75.60;;;;;;4950147;28;99486;-43
2023/08/13 09:49:21;;;;;;;120.60;57.47;;;22.60;75.70;;;;;;4937540;28;95846;-43
2023/08/13 09:51:49;;;;;;;119.00;57.63;;;22.50;75.20;;;;;;4952188;28;99512;-44
2023/08/13 09:54:20;;;;;;;120.10;57.53;;;22.60;75.40;;;;;;4947093;28;95625;-44
2023/08/13 09:56:53;;;;;;;116.97;57.40;;;22.60;75.40;;;;;;4952010;28;96449;-41
2023/08/13 09:59:18;;;;;;;118.22;57.60;;;22.80;74.40;;;;;;4950889;28;98321;-43
2023/08/13 10:01:45;;;;;;;120.15;57.58;;;22.80;74.30;;;;;;4946343;28;102213;-47
2023/08/13 10:04:11;;;;;;;117.60;57.95;;;22.80;74.90;;;;;;4945521;28;95714;-49
2023/08/13 10:06:37;;;;;;;118.40;58.05;;;22.90;74.00;;;;;;4947734;28;95276;-43
2023/08/13 10:09:04;;;;;;;119.38;57.45;;;22.80;74.50;;;;;;4946102;28;99030;-48
2023/08/13 10:11:29;;;;;;;118.38;57.85;;;22.80;74.30;;;;;;4948157;28;95170;-42
2023/08/13 10:13:55;;;;;;;120.35;57.45;;;22.80;74.00;;;;;;4951741;28;98079;-45
2023/08/13 10:16:22;;;;;;;121.38;57.53;;;22.90;73.20;;;;;;4949203;28;96078;-45
2023/08/13 10:18:47;;;;;;;117.78;58.17;;;22.90;72.80;;;;;;4956723;28;95970;-47
2023/08/13 10:21:14;;;;;;;120.32;57.80;;;22.90;72.70;;;;;;4949817;28;97869;-44
2023/08/13 10:23:40;;;;;;;120.47;57.45;;;23.00;72.70;;;;;;4949304;28;95098;-46
2023/08/13 10:26:07;;;;;;;118.13;57.67;;;22.90;72.50;;;;;;4947407;28;95979;-42
2023/08/13 10:28:34;;;;;;;120.25;57.58;;;22.80;72.60;;;;;;4950480;28;99363;-42
2023/08/13 10:31:29;;;;;;;121.15;57.95;;;22.80;72.20;;;;;;4953561;28;94883;-41
2023/08/13 10:34:25;;;;;;;117.53;57.55;;;22.80;72.90;;;;;;4949684;28;99632;-41
2023/08/13 10:36:53;;;;;;;119.03;57.92;;;22.90;73.90;;;;;;4943153;28;95004;-47
2023/08/13 10:39:35;;;;;;;119.65;57.42;;;23.00;72.90;;;;;;4943132;28;101910;-45
2023/08/13 10:42:22;;;;;;;118.47;57.78;;;23.10;72.80;;;;;;4953186;28;96006;-48
2023/08/13 10:44:48;;;;;;;117.68;57.95;;;23.30;73.00;;;;;;4939979;28;95505;-46
2023/08/13 10:47:14;;;;;;;120.75;58.05;;;23.30;70.90;;;;;;4948030;28;98657;-48
2023/08/13 10:49:41;;;;;;;120.70;57.92;;;23.40;73.00;;;;;;4949209;28;97218;-47
2023/08/13 10:52:07;;;;;;;117.72;57.90;;;23.40;71.50;;;;;;4952315;28;96373;-50
2023/08/13 10:54:33;;;;;;;119.32;58.08;;;23.30;72.00;;;;;;4944228;28;95459;-49
2023/08/13 10:57:00;;;;;;;121.53;58.15;;;23.40;72.20;;;;;;4948738;28;95118;-49
2023/08/13 10:59:38;;;;;;;118.32;57.95;;;23.40;70.90;;;;;;4943720;28;95166;-47
2023/08/13 11:02:16;;;;;;;122.22;58.05;;;23.50;72.30;;;;;;4958139;28;95969;-48
2023/08/13 11:04:44;;;;;;;125.30;58.40;;;23.60;71.80;;;;;;4953149;28;95243;-48
2023/08/13 11:07:11;;;;;;;120.10;58.17;;;23.60;71.20;;;;;;4944746;28;99757;-48
2023/08/13 11:09:42;;;;;;;125.53;58.65;;;23.70;70.20;;;;;;4954546;28;94789;-47
2023/08/13 11:12:09;;;;;;;126.90;61.15;;;23.70;70.90;;;;;;4959723;28;95805;-48
2023/08/13 11:14:35;;;;;;;120.43;58.80;;;23.80;70.80;;;;;;4958095;28;94899;-46
2023/08/13 11:17:01;;;;;;;127.07;60.15;;;23.80;68.80;;;;;;4952269;28;95826;-46
2023/08/13 11:19:27;;;;;;;123.20;59.22;;;23.90;70.00;;;;;;4957152;28;94574;-44
2023/08/13 11:21:54;;;;;;;123.32;59.30;;;23.90;70.60;;;;;;4959502;28;100460;-45
2023/08/13 11:24:21;;;;;;;121.55;58.30;;;24.00;70.40;;;;;;4956699;28;95814;-46
2023/08/13 11:26:50;;;;;;;122.10;58.75;;;24.00;68.20;;;;;;4959041;28;95507;-49
2023/08/13 11:29:20;;;;;;;119.22;58.35;;;24.00;69.80;;;;;;4960524;28;94804;-46
2023/08/13 11:31:47;;;;;;;121.43;58.60;;;24.00;69.50;;;;;;4953222;28;95754;-49
2023/08/13 11:34:15;;;;;;;122.43;59.10;;;24.00;69.20;;;;;;4955385;28;96228;-47
2023/08/13 11:36:42;;;;;;;121.78;58.40;;;24.00;68.50;;;;;;4955958;28;96850;-45
2023/08/13 11:39:08;;;;;;;120.38;59.13;;;24.10;68.70;;;;;;4954410;28;95653;-46
2023/08/13 11:41:34;;;;;;;118.35;58.55;;;24.10;67.40;;;;;;4955289;28;95349;-46
2023/08/13 11:44:01;;;;;;;120.68;58.30;;;24.10;68.50;;;;;;4956613;28;96457;-45
2023/08/13 11:46:27;;;;;;;119.00;58.33;;;24.10;66.10;;;;;;4950819;28;94875;-45
2023/08/13 11:48:54;;;;;;;118.03;57.92;;;24.10;67.10;;;;;;4954126;28;95066;-46
2023/08/13 11:51:24;;;;;;;118.85;58.85;;;24.10;66.80;;;;;;4956277;28;95166;-46
2023/08/13 11:53:50;;;;;;;119.90;58.08;;;24.20;66.10;;;;;;4956687;28;95322;-45
2023/08/13 11:56:18;;;;;;;122.40;58.95;;;24.20;66.40;;;;;;4960059;28;96095;-46
2023/08/13 11:58:44;;;;;;;120.63;58.53;;;24.30;65.20;;;;;;4950749;28;95961;-48
2023/08/13 12:01:13;;;;;;;120.75;58.47;;;24.30;65.30;;;;;;4953740;28;95630;-45
2023/08/13 12:03:40;;;;;;;116.13;58.03;;;24.20;64.90;;;;;;4949645;28;95611;-47
2023/08/13 12:06:07;;;;;;;119.50;58.22;;;24.00;62.70;;;;;;4947999;28;95960;-43
2023/08/13 12:08:33;;;;;;;120.63;58.33;;;24.00;64.10;;;;;;4961079;28;95290;-47
2023/08/13 12:10:59;;;;;;;117.97;57.88;;;23.90;63.90;;;;;;4942174;28;94760;-46
2023/08/13 12:13:25;;;;;;;119.00;58.28;;;23.90;64.40;;;;;;4951496;28;95328;-46
2023/08/13 12:15:51;;;;;;;118.38;58.25;;;23.90;65.20;;;;;;4957382;28;95621;-49